Time;durP1;ratioP1;P1;durP2;ratioP2;P2;SDS_P1;SDS_P2;PMS_P1;PMS_P2;Temp;Humidity;BMP_temperature;BMP_pressure;BME280_temperature;BME280_humidity;BME280_pressure;Samples;Min_cycle;Max_cycle;Signal;HPM_P1;HPM_P2
2023/10/01 00:02:28;;;;;;;9.77;5.43;;;;;;;12.84;100.00;101505.13;8295993;28;20034;-61
2023/10/01 00:06:29;;;;;;;12.45;6.13;;;;;;;12.85;100.00;101502.28;8295388;28;20058;-61
2023/10/01 00:10:30;;;;;;;14.50;6.60;;;;;;;12.90;100.00;101500.03;8295193;28;20405;-61
2023/10/01 00:14:30;;;;;;;11.95;5.57;;;;;;;12.99;100.00;101504.69;8295354;28;20037;-61
2023/10/01 00:18:31;;;;;;;9.52;5.65;;;;;;;12.85;100.00;101501.41;8294903;28;20135;-61
2023/10/01 00:22:33;;;;;;;12.40;5.82;;;;;;;12.88;100.00;101490.28;8294700;28;20533;-61
2023/10/01 00:26:37;;;;;;;11.05;6.18;;;;;;;12.86;100.00;101504.00;8287481;28;20540;-61
2023/10/01 00:30:37;;;;;;;10.40;4.97;;;;;;;12.77;100.00;101507.50;8289969;28;20042;-63
2023/10/01 00:34:38;;;;;;;11.95;5.55;;;;;;;12.74;100.00;101491.47;8292240;28;20073;-61
2023/10/01 00:38:38;;;;;;;12.13;4.85;;;;;;;12.80;100.00;101498.22;8294326;28;20065;-61
2023/10/01 00:42:39;;;;;;;10.73;4.90;;;;;;;12.72;100.00;101479.03;8284937;28;20431;-62
2023/10/01 00:46:40;;;;;;;10.23;5.03;;;;;;;12.69;100.00;101479.31;8293905;28;20064;-61
2023/10/01 00:50:41;;;;;;;12.77;5.85;;;;;;;12.67;100.00;101475.84;8293613;28;20038;-61
2023/10/01 00:54:43;;;;;;;12.07;5.20;;;;;;;12.67;100.00;101475.84;8292720;28;20428;-59
2023/10/01 00:58:45;;;;;;;11.35;5.95;;;;;;;12.68;100.00;101472.13;8292556;28;20037;-62
2023/10/01 01:03:19;;;;;;;14.23;5.35;;;;;;;12.79;100.00;101481.09;8293139;28;20415;-62
2023/10/01 01:07:19;;;;;;;13.37;5.63;;;;;;;12.70;100.00;101473.75;8289820;28;20048;-59
2023/10/01 01:11:21;;;;;;;12.45;5.40;;;;;;;12.78;100.00;101476.66;8292731;28;20041;-62
2023/10/01 01:15:22;;;;;;;18.13;6.78;;;;;;;12.92;100.00;101470.03;8292942;28;20176;-60
2023/10/01 01:19:23;;;;;;;13.82;6.05;;;;;;;12.93;100.00;101471.78;8292884;28;20046;-58
2023/10/01 01:23:24;;;;;;;11.38;5.53;;;;;;;12.93;100.00;101460.91;8293548;28;20339;-59
2023/10/01 01:27:24;;;;;;;10.43;5.47;;;;;;;12.80;100.00;101465.66;8290297;28;20132;-59
2023/10/01 01:31:28;;;;;;;12.27;5.28;;;;;;;12.75;100.00;101451.66;8289594;28;20038;-60
2023/10/01 01:35:28;;;;;;;11.43;5.40;;;;;;;12.91;100.00;101447.47;8289835;28;20052;-59
2023/10/01 01:39:46;;;;;;;11.18;5.03;;;;;;;12.87;100.00;101445.16;8289460;28;20042;-59
2023/10/01 01:43:50;;;;;;;12.38;4.85;;;;;;;12.89;100.00;101451.28;8283676;28;20116;-59
2023/10/01 01:47:50;;;;;;;14.10;5.70;;;;;;;12.98;100.00;101447.78;8284284;28;20038;-60
2023/10/01 01:51:59;;;;;;;11.38;4.70;;;;;;;12.94;100.00;101446.34;8292259;28;20045;-59
2023/10/01 01:56:04;;;;;;;11.05;5.18;;;;;;;12.96;100.00;101436.22;8292330;28;20522;-59
2023/10/01 02:00:13;;;;;;;11.15;4.85;;;;;;;13.03;100.00;101432.88;8291132;28;20412;-60
2023/10/01 02:04:14;;;;;;;11.23;5.57;;;;;;;12.99;100.00;101435.97;8252527;28;20762;-59
2023/10/01 02:09:19;;;;;;;9.70;5.03;;;;;;;12.78;100.00;101435.09;8291445;28;20462;-59
2023/10/01 02:12:36;;;;;;;12.60;5.32;;;;;;;12.79;100.00;101436.81;8291830;28;20041;-63
2023/10/01 02:16:37;;;;;;;12.82;5.07;;;;;;;12.78;100.00;101430.50;8292149;28;20041;-63
2023/10/01 02:20:37;;;;;;;16.33;5.82;;;;;;;12.77;100.00;101419.78;8278348;28;20044;-62
2023/10/01 02:24:45;;;;;;;10.75;5.45;;;;;;;12.85;100.00;101425.44;8290891;28;20052;-62
2023/10/01 02:28:46;;;;;;;14.02;5.05;;;;;;;12.83;100.00;101419.25;8287480;28;20034;-63
2023/10/01 02:33:15;;;;;;;12.65;5.47;;;;;;;12.81;100.00;101429.41;8287948;28;20148;-63
2023/10/01 02:37:08;;;;;;;13.10;5.53;;;;;;;12.81;100.00;101419.38;8285132;28;20030;-63
2023/10/01 02:41:09;;;;;;;11.45;5.53;;;;;;;12.87;100.00;101418.03;8291605;28;20117;-62
2023/10/01 02:45:30;;;;;;;13.82;6.10;;;;;;;12.85;100.00;101420.00;8290517;28;20060;-62
2023/10/01 02:49:32;;;;;;;13.07;5.22;;;;;;;12.96;100.00;101425.38;8285693;28;20037;-62
2023/10/01 02:53:42;;;;;;;10.20;5.05;;;;;;;12.70;100.00;101418.59;8290595;28;20420;-62
2023/10/01 02:57:44;;;;;;;13.48;6.30;;;;;;;12.68;100.00;101415.16;8264240;28;20471;-62
2023/10/01 03:01:46;;;;;;;11.05;5.38;;;;;;;12.68;100.00;101413.31;8259095;28;20034;-62
2023/10/01 03:05:47;;;;;;;10.88;4.80;;;;;;;12.65;100.00;101415.41;8290382;28;20416;-63
2023/10/01 03:09:48;;;;;;;11.10;5.20;;;;;;;12.74;100.00;101414.63;8290284;28;20053;-62
2023/10/01 03:13:51;;;;;;;10.27;5.03;;;;;;;12.74;100.00;101411.91;8274041;28;20037;-62
2023/10/01 03:17:56;;;;;;;11.43;5.22;;;;;;;12.71;100.00;101412.19;8290354;28;20108;-62
2023/10/01 03:22:15;;;;;;;;;;;;;;;12.65;100.00;101415.41;8287200;28;20040;-61
2023/10/01 03:26:17;;;;;;;10.00;5.13;;;;;;;12.66;100.00;101403.59;8290018;28;19922;-62
2023/10/01 03:30:21;;;;;;;10.77;5.53;;;;;;;12.65;100.00;101415.41;8296461;28;20045;-62
2023/10/01 03:34:29;;;;;;;15.77;5.60;;;;;;;12.71;100.00;101414.88;8276843;28;20052;-62
2023/10/01 03:38:32;;;;;;;13.82;5.40;;;;;;;12.77;100.00;101423.38;8292883;28;20046;-63
2023/10/01 03:42:36;;;;;;;11.30;5.32;;;;;;;12.77;100.00;101422.50;8278432;28;20052;-62
2023/10/01 03:46:45;;;;;;;9.50;5.30;;;;;;;12.72;100.00;101419.34;8295929;28;20516;-63
2023/10/01 03:50:46;;;;;;;7.93;4.95;;;;;;;12.76;100.00;101426.22;8295758;28;20099;-62
2023/10/01 03:55:25;;;;;;;13.27;6.20;;;;;;;12.85;100.00;101420.88;8296221;28;20068;-62
2023/10/01 03:59:15;;;;;;;11.55;5.38;;;;;;;12.78;100.00;101424.25;8290864;28;20052;-63
2023/10/01 04:03:16;;;;;;;10.27;5.43;;;;;;;12.91;100.00;101430.31;8287258;28;20107;-64
2023/10/01 04:07:18;;;;;;;9.77;5.63;;;;;;;12.85;100.00;101429.00;8295372;28;20037;-64
2023/10/01 04:11:18;;;;;;;9.25;5.22;;;;;;;12.83;100.00;101427.41;8295497;28;20046;-63
2023/10/01 04:15:40;;;;;;;11.75;4.68;;;;;;;12.88;100.00;101433.31;8285712;28;20045;-63
2023/10/01 04:19:43;;;;;;;9.73;4.63;;;;;;;12.80;100.00;101427.66;8295099;28;20070;-62
2023/10/01 04:23:47;;;;;;;;;;;;;;;12.81;100.00;101429.41;8254785;28;20397;-62
2023/10/01 04:27:47;;;;;;;10.90;5.18;;;;;;;12.86;100.00;101421.72;8239678;28;19918;-62
2023/10/01 04:31:48;;;;;;;14.23;5.50;;;;;;;12.82;100.00;101422.97;8291477;28;20519;-63
2023/10/01 04:35:58;;;;;;;9.77;5.15;;;;;;;12.84;100.00;101429.13;8294354;28;20065;-63
2023/10/01 04:39:59;;;;;;;12.88;5.20;;;;;;;12.86;100.00;101427.13;8271561;28;20100;-62
2023/10/01 04:44:06;;;;;;;10.85;4.85;;;;;;;12.96;100.00;101434.34;8283084;28;20125;-63
2023/10/01 04:48:23;;;;;;;9.95;4.45;;;;;;;13.04;100.00;101436.44;8293986;28;20044;-62
2023/10/01 04:52:24;;;;;;;11.48;4.90;;;;;;;12.97;100.00;101432.50;8290429;28;20519;-60
2023/10/01 04:56:25;;;;;;;13.30;5.60;;;;;;;12.95;100.00;101431.75;8293440;28;20404;-60
2023/10/01 05:00:26;;;;;;;11.85;4.57;;;;;;;12.99;100.00;101427.81;8264096;28;20042;-60
2023/10/01 05:04:27;;;;;;;9.30;4.72;;;;;;;12.94;100.00;101425.50;8294160;28;20141;-60
2023/10/01 05:08:38;;;;;;;15.05;5.95;;;;;;;12.85;100.00;101425.44;8292745;28;20091;-60
2023/10/01 05:12:43;;;;;;;10.48;4.85;;;;;;;12.79;100.00;101420.53;8290600;28;20048;-60
2023/10/01 05:16:43;;;;;;;10.93;4.80;;;;;;;12.77;100.00;101422.50;8277171;28;20242;-62
2023/10/01 05:20:48;;;;;;;10.48;5.35;;;;;;;12.79;100.00;101425.94;8275802;28;20049;-61
2023/10/01 05:24:49;;;;;;;15.27;5.55;;;;;;;12.81;100.00;101426.69;8292724;28;20034;-60
2023/10/01 05:28:51;;;;;;;11.88;4.75;;;;;;;12.97;100.00;101421.66;8291596;28;20050;-60
2023/10/01 05:32:54;;;;;;;;;;;;;;;13.00;100.00;101426.84;8289840;28;20034;-60
2023/10/01 05:37:08;;;;;;;12.43;4.57;;;;;;;13.04;100.00;101431.00;8291893;28;20004;-60
2023/10/01 05:41:13;;;;;;;11.35;4.65;;;;;;;13.07;100.00;101436.16;8287628;28;20277;-62
2023/10/01 05:45:18;;;;;;;10.13;4.60;;;;;;;13.08;100.00;101429.72;8257718;28;20111;-60
2023/10/01 05:49:18;;;;;;;11.48;4.85;;;;;;;13.03;100.00;101435.59;8288006;28;20042;-60
2023/10/01 05:53:20;;;;;;;14.70;5.38;;;;;;;13.05;100.00;101427.31;8292550;28;20108;-60
2023/10/01 05:57:21;;;;;;;11.95;5.30;;;;;;;13.08;100.00;101427.00;8289749;28;20042;-59
2023/10/01 06:01:21;;;;;;;12.10;5.47;;;;;;;13.14;100.00;101431.91;8290147;28;20048;-60
2023/10/01 06:05:32;;;;;;;11.32;5.13;;;;;;;13.29;100.00;101425.13;8292006;28;20101;-60
2023/10/01 06:09:35;;;;;;;13.77;5.10;;;;;;;13.30;100.00;101443.16;8288613;28;20038;-61
2023/10/01 06:13:38;;;;;;;10.52;5.53;;;;;;;13.42;100.00;101437.47;8288291;28;20061;-62
2023/10/01 06:17:42;;;;;;;12.30;5.05;;;;;;;13.50;100.00;101444.94;8291452;28;20041;-60
2023/10/01 06:21:46;;;;;;;11.82;5.07;;;;;;;13.61;100.00;101436.72;8290039;28;20144;-60
2023/10/01 06:25:53;;;;;;;10.70;4.70;;;;;;;13.78;100.00;101441.47;8290063;28;20038;-60
2023/10/01 06:29:56;;;;;;;15.27;5.07;;;;;;;14.05;100.00;101436.25;8294996;28;20034;-60
2023/10/01 06:33:57;;;;;;;13.05;5.07;;;;;;;14.26;100.00;101437.03;8291648;28;20443;-59
2023/10/01 06:37:59;;;;;;;9.95;4.95;;;;;;;14.53;99.65;101448.09;8291189;28;20451;-60
2023/10/01 06:42:33;;;;;;;13.80;5.35;;;;;;;14.74;99.10;101445.19;8260471;28;20117;-62
2023/10/01 06:46:27;;;;;;;10.73;4.70;;;;;;;15.09;96.73;101438.13;8276515;28;20050;-60
2023/10/01 06:50:28;;;;;;;15.18;4.93;;;;;;;15.39;95.38;101435.19;8286053;28;20035;-60
2023/10/01 06:54:29;;;;;;;16.45;5.10;;;;;;;15.54;96.54;101436.44;8279591;28;20030;-61
2023/10/01 06:58:29;;;;;;;12.10;4.70;;;;;;;15.77;94.90;101432.28;8276169;28;20078;-62
2023/10/01 07:02:31;;;;;;;12.25;5.57;;;;;;;15.97;93.50;101433.03;8274814;28;20050;-61
2023/10/01 07:06:34;;;;;;;13.77;4.90;;;;;;;16.00;93.44;101442.78;8292075;28;20096;-61
2023/10/01 07:10:36;;;;;;;12.25;5.35;;;;;;;16.18;94.42;101444.53;8295233;28;20626;-60
2023/10/01 07:14:43;;;;;;;12.35;4.93;;;;;;;16.43;93.74;101446.53;8296281;28;20129;-59
2023/10/01 07:18:44;;;;;;;12.38;5.30;;;;;;;16.59;93.89;101443.09;8295179;28;20034;-60
2023/10/01 07:22:44;;;;;;;13.95;5.72;;;;;;;16.95;93.43;101426.50;8296678;28;20045;-60
2023/10/01 07:26:46;;;;;;;15.38;6.15;;;;;;;17.14;93.02;101430.94;8296323;28;20117;-60
2023/10/01 07:30:51;;;;;;;14.65;5.72;;;;;;;17.29;92.66;101432.00;8296877;28;20442;-60
2023/10/01 07:34:58;;;;;;;12.57;5.97;;;;;;;17.45;92.74;101435.75;8292933;28;20038;-60
2023/10/01 07:38:59;;;;;;;13.25;5.43;;;;;;;17.72;92.58;101437.44;8292301;28;20112;-60
2023/10/01 07:43:01;;;;;;;16.50;5.80;;;;;;;17.97;92.13;101444.72;8295740;28;20038;-61
2023/10/01 07:47:03;;;;;;;12.45;5.53;;;;;;;18.13;91.54;101444.75;8295480;28;20128;-60
2023/10/01 07:51:04;;;;;;;17.52;6.38;;;;;;;18.52;91.23;101454.13;8295515;28;20091;-60
2023/10/01 07:55:29;;;;;;;14.00;5.85;;;;;;;18.72;89.65;101444.56;8295741;28;20042;-60
2023/10/01 07:59:43;;;;;;;15.57;5.95;;;;;;;19.23;87.68;101437.84;8291365;28;20050;-60
2023/10/01 08:03:48;;;;;;;18.42;5.93;;;;;;;19.40;88.46;101445.06;8295886;28;20045;-60
2023/10/01 08:07:50;;;;;;;15.05;6.40;;;;;;;19.79;88.93;101456.06;8294547;28;20037;-62
2023/10/01 08:11:58;;;;;;;16.88;5.88;;;;;;;20.17;86.03;101455.25;8293906;28;20060;-61
2023/10/01 08:15:59;;;;;;;14.68;6.13;;;;;;;20.51;81.61;101447.47;8294286;28;20381;-62
2023/10/01 08:20:14;;;;;;;15.60;6.07;;;;;;;20.86;79.22;101441.38;8290783;28;20041;-62
2023/10/01 08:24:18;;;;;;;18.33;6.78;;;;;;;20.93;78.27;101439.59;8290912;28;20168;-62
2023/10/01 08:32:38;;;;;;;14.18;5.30;;;;;;;21.27;77.49;101428.97;8321136;28;20429;-62
2023/10/01 08:36:41;;;;;;;;;;;;;;;21.49;77.15;101439.06;8303459;28;20053;-61
2023/10/01 08:40:43;;;;;;;;;;;;;;;21.59;76.58;101439.63;8307027;28;20335;-61
2023/10/01 08:44:54;;;;;;;13.93;5.55;;;;;;;22.02;74.79;101455.31;8298158;28;19984;-62
2023/10/01 08:49:18;;;;;;;14.52;5.53;;;;;;;22.11;74.89;101458.81;8327589;28;20561;-62
2023/10/01 08:53:16;;;;;;;14.85;6.35;;;;;;;22.07;73.95;101455.59;8338391;28;20041;-62
2023/10/01 08:57:17;;;;;;;13.75;5.95;;;;;;;22.51;73.83;101445.34;8351212;28;20040;-62
2023/10/01 09:01:21;;;;;;;13.15;5.82;;;;;;;22.61;74.44;101443.13;8330668;28;20498;-62
2023/10/01 09:05:24;;;;;;;16.38;6.38;;;;;;;23.12;71.95;101447.44;8332194;28;20041;-61
2023/10/01 09:09:26;;;;;;;13.90;5.72;;;;;;;24.65;67.15;101447.09;8329616;28;20064;-61
2023/10/01 09:13:30;;;;;;;14.23;5.68;;;;;;;26.60;61.83;101432.88;8323735;28;20041;-62
2023/10/01 09:17:40;;;;;;;14.50;5.18;;;;;;;27.39;60.21;101443.47;8327486;28;20040;-62
2023/10/01 09:21:40;;;;;;;15.20;6.55;;;;;;;27.95;57.25;101444.19;8344952;28;20070;-61
2023/10/01 09:25:42;;;;;;;19.00;6.38;;;;;;;27.84;57.40;101450.50;8341008;28;20037;-62
2023/10/01 09:29:43;;;;;;;12.77;5.22;;;;;;;28.52;56.13;101432.56;8347094;28;20128;-62
2023/10/01 09:33:48;;;;;;;16.48;5.88;;;;;;;29.48;54.25;101436.78;8333898;28;20037;-62
2023/10/01 09:38:10;;;;;;;12.18;5.47;;;;;;;29.70;52.98;101426.75;8340788;28;20510;-62
2023/10/01 09:42:28;;;;;;;12.18;5.75;;;;;;;29.50;53.43;101417.91;8328075;28;20091;-61
2023/10/01 09:46:34;;;;;;;11.75;5.95;;;;;;;28.97;54.62;101431.00;8323417;28;20151;-62
2023/10/01 09:50:43;;;;;;;16.80;6.18;;;;;;;29.70;54.01;101421.16;8306825;28;20041;-62
2023/10/01 09:54:48;;;;;;;14.90;6.00;;;;;;;30.97;51.29;101428.31;8309498;28;20770;-65
2023/10/01 09:58:49;;;;;;;14.38;5.97;;;;;;;30.84;51.04;101423.91;8314429;28;20459;-61
2023/10/01 10:02:53;;;;;;;15.20;7.05;;;;;;;30.31;52.30;101429.81;8302130;28;20428;-62
2023/10/01 10:07:04;;;;;;;12.27;5.65;;;;;;;31.56;51.12;101427.69;8319407;28;20419;-62
2023/10/01 10:11:13;;;;;;;15.45;5.80;;;;;;;31.72;49.96;101426.78;8297695;28;20100;-64
2023/10/01 10:15:16;;;;;;;12.85;6.00;;;;;;;31.58;50.36;101425.44;8304011;28;20038;-60
2023/10/01 10:19:20;;;;;;;12.73;5.50;;;;;;;31.90;49.30;101412.53;8304569;28;20034;-60
2023/10/01 10:23:29;;;;;;;12.30;5.70;;;;;;;30.63;50.72;101421.78;8286753;28;20041;-62
2023/10/01 10:27:46;;;;;;;16.60;6.43;;;;;;;31.84;50.41;101424.75;8309414;28;20065;-60
2023/10/01 10:32:09;;;;;;;12.93;6.18;;;;;;;32.40;48.44;101418.81;8304125;28;20069;-60
2023/10/01 10:36:50;;;;;;;16.95;6.95;;;;;;;31.42;49.99;101420.72;8317471;28;20098;-60
2023/10/01 10:41:05;;;;;;;15.68;5.88;;;;;;;33.05;47.84;101399.88;8283790;28;20058;-60
2023/10/01 10:45:21;;;;;;;13.20;6.03;;;;;;;32.40;47.49;101404.81;8270379;28;20558;-62
2023/10/01 10:49:23;;;;;;;14.00;5.85;;;;;;;32.26;48.61;101397.88;8304906;28;20411;-62
2023/10/01 10:53:39;;;;;;;16.92;6.30;;;;;;;31.65;49.37;101389.78;8318561;28;20033;-64
2023/10/01 10:57:48;;;;;;;14.25;6.13;;;;;;;32.95;47.16;101394.19;8304230;28;20520;-61
2023/10/01 11:01:51;;;;;;;15.32;6.82;;;;;;;32.92;47.15;101380.72;8300236;28;20058;-60
2023/10/01 11:05:52;;;;;;;12.67;5.90;;;;;;;33.28;46.99;101377.09;8302024;28;20094;-60
2023/10/01 11:09:54;;;;;;;13.95;6.97;;;;;;;34.36;44.91;101372.66;8304861;28;20333;-60
2023/10/01 11:14:05;;;;;;;15.93;7.20;;;;;;;33.61;45.35;101371.16;8297778;28;20495;-60
2023/10/01 11:18:09;;;;;;;16.70;7.10;;;;;;;32.06;47.83;101366.84;8297193;28;20053;-60
2023/10/01 11:22:10;;;;;;;17.17;7.43;;;;;;;33.50;45.85;101358.19;8301031;28;20049;-60
2023/10/01 11:26:26;;;;;;;15.38;7.20;;;;;;;34.24;44.65;101356.03;8301639;28;20091;-61
2023/10/01 11:30:34;;;;;;;16.42;7.82;;;;;;;33.66;44.48;101370.34;8300776;28;20046;-61
2023/10/01 11:34:43;;;;;;;16.45;7.43;;;;;;;33.82;43.98;101350.50;8300282;28;20084;-61
2023/10/01 11:38:46;;;;;;;14.20;6.57;;;;;;;33.34;45.54;101344.31;8300807;28;20033;-60
2023/10/01 11:42:52;;;;;;;16.17;6.93;;;;;;;33.50;43.77;101346.97;8299822;28;20037;-60
2023/10/01 11:46:58;;;;;;;18.67;8.07;;;;;;;32.92;45.66;101349.03;8299352;28;20744;-60
2023/10/01 11:50:59;;;;;;;15.80;7.18;;;;;;;33.22;44.26;101338.91;8301341;28;20416;-61
2023/10/01 11:55:01;;;;;;;15.60;6.82;;;;;;;34.23;42.84;101331.03;8298356;28;20092;-61
2023/10/01 11:59:01;;;;;;;18.05;8.20;;;;;;;34.98;41.25;101331.19;8310374;28;20037;-60
2023/10/01 12:03:10;;;;;;;23.65;8.57;;;;;;;35.37;41.56;101329.50;8303827;28;20046;-63
2023/10/01 12:07:19;;;;;;;15.45;7.68;;;;;;;34.87;41.33;101330.34;8313119;28;20037;-62
2023/10/01 12:11:26;;;;;;;13.80;6.82;;;;;;;34.97;41.95;101319.09;8304089;28;20041;-62
2023/10/01 12:15:34;;;;;;;16.70;7.95;;;;;;;32.60;44.67;101315.41;8313798;28;20037;-63
2023/10/01 12:19:34;;;;;;;18.95;8.55;;;;;;;32.32;45.20;101320.41;8298673;28;20038;-63
2023/10/01 12:23:35;;;;;;;15.82;7.75;;;;;;;33.51;42.89;101309.38;8302316;28;20116;-63
2023/10/01 12:27:41;;;;;;;16.42;7.45;;;;;;;31.39;44.83;101306.63;8298170;28;20086;-63
2023/10/01 12:31:45;;;;;;;19.50;8.98;;;;;;;29.70;47.74;101304.06;8297866;28;20093;-62
2023/10/01 12:35:46;;;;;;;;;;;;;;;30.73;47.00;101296.28;8301283;28;20510;-63
2023/10/01 12:39:47;;;;;;;21.92;8.75;;;;;;;30.98;46.21;101301.50;8318418;28;19921;-62
2023/10/01 12:43:48;;;;;;;18.65;9.13;;;;;;;30.82;46.86;101279.97;8301349;28;20049;-62
2023/10/01 12:47:52;;;;;;;19.48;9.32;;;;;;;29.49;48.78;101276.81;8313080;28;20053;-63
2023/10/01 12:51:54;;;;;;;18.77;8.50;;;;;;;28.54;51.05;101280.06;8302773;28;20171;-63
2023/10/01 12:55:56;;;;;;;20.30;8.63;;;;;;;28.43;50.37;101273.41;8313024;28;20683;-63
2023/10/01 13:00:43;;;;;;;21.88;8.98;;;;;;;28.25;51.68;101270.69;8310985;28;20081;-62
2023/10/01 13:04:22;;;;;;;19.27;8.43;;;;;;;28.09;51.84;101263.00;8319752;28;20038;-62
2023/10/01 13:08:30;;;;;;;18.38;8.40;;;;;;;28.22;51.00;101270.31;8306612;28;20046;-63
2023/10/01 13:12:31;;;;;;;20.63;8.63;;;;;;;27.51;53.29;101255.47;8297131;28;20061;-63
2023/10/01 13:16:33;;;;;;;17.63;8.38;;;;;;;28.04;51.59;101251.75;8303650;28;20041;-63
2023/10/01 13:20:46;;;;;;;19.67;9.02;;;;;;;28.00;51.91;101244.94;8306061;28;20506;-64
2023/10/01 13:24:53;;;;;;;18.10;7.88;;;;;;;27.69;52.89;101249.91;8325890;28;20053;-61
2023/10/01 13:28:56;;;;;;;19.63;9.10;;;;;;;27.54;52.66;101250.28;8315874;28;20095;-60
2023/10/01 13:33:14;;;;;;;20.02;8.50;;;;;;;27.36;52.50;101246.69;8299355;28;20045;-63
2023/10/01 13:37:42;;;;;;;22.20;9.15;;;;;;;27.15;53.19;101236.00;8312885;28;20125;-60
2023/10/01 14:08:45;;;;;;;20.33;7.78;;;;;;;28.05;52.67;101202.53;8395770;28;20047;-62
2023/10/01 14:11:54;;;;;;;18.65;8.48;;;;;;;27.83;52.69;101193.00;8394398;28;20127;-61
2023/10/01 14:16:11;;;;;;;18.08;8.02;;;;;;;27.57;54.31;101194.22;8392029;28;20554;-62
2023/10/01 14:20:12;;;;;;;19.52;8.13;;;;;;;27.65;52.33;101193.06;8384566;28;20046;-63
2023/10/01 14:24:27;;;;;;;18.20;7.93;;;;;;;27.45;51.99;101190.59;8393840;28;20124;-62
2023/10/01 14:28:28;;;;;;;19.70;8.35;;;;;;;27.32;51.87;101181.56;8391112;28;20121;-62
2023/10/01 14:32:34;;;;;;;22.73;8.90;;;;;;;27.27;52.53;101184.19;8399487;28;20028;-63
2023/10/01 14:36:39;;;;;;;21.95;8.88;;;;;;;27.57;53.06;101171.19;8389926;28;20074;-64
2023/10/01 14:40:40;;;;;;;19.73;8.30;;;;;;;27.40;52.21;101167.34;8387387;28;20045;-64
2023/10/01 14:44:42;;;;;;;24.05;9.48;;;;;;;27.33;52.76;101174.94;8381504;28;20431;-64
2023/10/01 14:48:46;;;;;;;18.20;7.88;;;;;;;27.47;52.82;101160.63;8388662;28;20402;-63
2023/10/01 14:52:47;;;;;;;20.23;7.95;;;;;;;27.38;52.26;101166.75;8389150;28;20043;-64
2023/10/01 14:56:54;;;;;;;19.05;8.50;;;;;;;27.37;52.78;101165.03;8371463;28;20069;-64
2023/10/01 15:00:57;;;;;;;19.60;8.80;;;;;;;27.17;53.12;101169.97;8369773;28;20550;-64
2023/10/01 15:04:57;;;;;;;21.50;9.07;;;;;;;27.22;53.75;101170.97;8370118;28;20044;-62
2023/10/01 15:08:58;;;;;;;20.55;8.20;;;;;;;27.53;53.21;101158.84;8373951;28;20037;-63
2023/10/01 15:13:01;;;;;;;17.52;8.13;;;;;;;27.34;52.92;101159.94;8365887;28;20028;-63
2023/10/01 15:17:03;;;;;;;18.85;8.45;;;;;;;27.27;53.29;101142.53;8366368;28;20036;-64
2023/10/01 15:21:38;;;;;;;18.55;8.10;;;;;;;27.53;52.48;101147.72;8367381;28;20438;-63
2023/10/01 15:25:32;;;;;;;22.27;8.93;;;;;;;27.33;53.39;101155.47;8366086;28;20041;-63
2023/10/01 15:29:33;;;;;;;26.23;9.73;;;;;;;27.30;52.47;101147.63;8359028;28;20292;-63
2023/10/01 15:33:34;;;;;;;18.38;8.65;;;;;;;27.18;52.76;101152.22;8346749;28;20055;-62
2023/10/01 15:37:34;;;;;;;21.77;9.05;;;;;;;27.17;53.14;101148.59;8372602;28;20040;-63
2023/10/01 15:41:41;;;;;;;18.48;8.82;;;;;;;27.27;53.03;101148.94;8333290;28;20067;-62
2023/10/01 15:45:43;;;;;;;21.80;8.52;;;;;;;27.14;53.63;101149.06;8352955;28;20040;-61
2023/10/01 15:49:44;;;;;;;20.58;7.72;;;;;;;27.09;54.10;101143.38;8342426;28;20048;-60
2023/10/01 15:53:44;;;;;;;18.42;7.90;;;;;;;27.10;54.36;101135.88;8369579;28;20044;-62
2023/10/01 15:57:54;;;;;;;20.30;8.35;;;;;;;27.02;53.88;101128.75;8365728;28;20072;-61
2023/10/01 16:01:54;;;;;;;19.98;8.60;;;;;;;27.01;53.52;101128.97;8364267;28;20050;-61
2023/10/01 16:05:57;;;;;;;17.90;7.90;;;;;;;27.05;54.80;101132.97;8357385;28;20633;-61
2023/10/01 16:10:09;;;;;;;18.17;7.78;;;;;;;27.31;55.52;101135.41;8365396;28;20048;-61
2023/10/01 16:14:14;;;;;;;18.83;7.38;;;;;;;27.11;57.20;101132.88;8351068;28;20526;-62
2023/10/01 16:18:15;;;;;;;17.45;7.18;;;;;;;27.14;57.85;101137.13;8361556;28;20036;-62
2023/10/01 16:22:20;;;;;;;15.32;6.78;;;;;;;26.87;60.19;101141.31;8357458;28;20029;-61
2023/10/01 16:26:21;;;;;;;17.20;7.45;;;;;;;26.56;61.41;101140.31;8361298;28;20534;-61
2023/10/01 16:30:22;;;;;;;14.80;6.75;;;;;;;26.43;61.92;101134.94;8366223;28;20045;-63
2023/10/01 16:34:27;;;;;;;15.38;6.50;;;;;;;26.40;62.11;101145.63;8367396;28;20036;-62
2023/10/01 16:38:42;;;;;;;15.73;6.65;;;;;;;26.34;62.22;101141.84;8352063;28;20102;-62
2023/10/01 16:42:45;;;;;;;16.33;7.35;;;;;;;26.17;63.33;101148.19;8365819;28;20033;-62
2023/10/01 16:46:57;;;;;;;16.65;6.53;;;;;;;25.94;64.06;101143.22;8354051;28;20037;-61
2023/10/01 16:51:03;;;;;;;16.05;7.07;;;;;;;25.78;65.55;101138.25;8355041;28;20048;-62
2023/10/01 16:55:04;;;;;;;15.13;6.75;;;;;;;25.66;66.52;101148.34;8368812;28;20458;-61
2023/10/01 16:59:05;;;;;;;15.30;6.65;;;;;;;25.49;66.82;101141.63;8364128;28;20033;-61
2023/10/01 17:03:10;;;;;;;14.30;6.80;;;;;;;25.42;66.79;101137.19;8364595;28;20051;-61
2023/10/01 17:07:14;;;;;;;15.02;6.72;;;;;;;25.45;66.63;101134.84;8360808;28;20477;-60
2023/10/01 17:11:17;;;;;;;15.50;7.25;;;;;;;25.01;70.28;101126.53;8346415;28;20533;-64
2023/10/01 17:15:41;;;;;;;19.98;10.30;;;;;;;24.79;71.02;101127.88;8366609;28;20036;-62
2023/10/01 17:19:43;;;;;;;15.02;6.70;;;;;;;24.92;69.37;101112.09;8360885;28;20147;-62
2023/10/01 17:23:45;;;;;;;17.38;7.30;;;;;;;25.00;69.74;101119.28;8363645;28;20040;-61
2023/10/01 17:27:46;;;;;;;21.48;9.38;;;;;;;24.44;73.02;101120.94;8357978;28;20064;-62
2023/10/01 17:31:49;;;;;;;21.40;9.20;;;;;;;23.50;78.65;101122.19;8367320;28;20112;-63
2023/10/01 17:35:49;;;;;;;18.30;8.15;;;;;;;23.40;79.56;101123.66;8367046;28;20041;-62
2023/10/01 17:39:55;;;;;;;18.83;7.45;;;;;;;23.48;78.30;101123.47;8366109;28;20128;-61
2023/10/01 17:43:58;;;;;;;17.83;6.88;;;;;;;23.10;80.73;101126.75;8362268;28;20052;-61
2023/10/01 17:47:59;;;;;;;18.07;7.07;;;;;;;22.89;81.96;101132.38;8328071;28;20036;-62
2023/10/01 17:52:25;;;;;;;18.35;7.88;;;;;;;22.70;82.24;101141.41;8365865;28;20094;-62
2023/10/01 17:56:27;;;;;;;20.35;8.02;;;;;;;22.81;80.82;101135.31;8357237;28;20049;-61
2023/10/01 18:00:48;;;;;;;16.48;7.47;;;;;;;22.50;82.96;101143.19;8353137;28;20037;-64
2023/10/01 18:05:01;;;;;;;19.88;7.07;;;;;;;22.78;81.09;101138.47;8329266;28;20041;-63
2023/10/01 18:09:13;;;;;;;20.52;7.60;;;;;;;23.12;79.37;101137.56;8328274;28;20045;-64
2023/10/01 18:13:22;;;;;;;20.75;7.55;;;;;;;23.24;78.46;101140.59;8324542;28;20045;-64
2023/10/01 18:17:22;;;;;;;17.35;6.45;;;;;;;23.30;78.24;101142.53;8329226;28;20820;-64
2023/10/01 18:21:24;;;;;;;18.77;6.85;;;;;;;23.25;78.18;101147.81;8324552;28;20191;-63
2023/10/01 18:25:24;;;;;;;15.32;6.75;;;;;;;22.87;80.31;101140.00;8335107;28;20045;-64
2023/10/01 18:29:25;;;;;;;16.00;6.70;;;;;;;22.40;82.86;101142.69;8333945;28;20542;-64
2023/10/01 18:33:28;;;;;;;17.73;6.93;;;;;;;22.44;82.72;101137.59;8337274;28;20045;-63
2023/10/01 18:37:35;;;;;;;16.27;6.17;;;;;;;22.43;82.77;101146.91;8337252;28;20048;-64
2023/10/01 18:41:36;;;;;;;16.95;7.00;;;;;;;22.51;82.23;101139.38;8337425;28;20044;-64
2023/10/01 18:45:37;;;;;;;20.52;7.03;;;;;;;22.61;81.67;101145.38;8339831;28;20041;-62
2023/10/01 18:49:37;;;;;;;18.42;7.65;;;;;;;22.70;81.09;101148.81;8341635;28;20025;-62
2023/10/01 18:53:38;;;;;;;14.30;6.43;;;;;;;22.57;81.18;101141.31;8344726;28;20037;-62
2023/10/01 18:57:39;;;;;;;16.50;6.15;;;;;;;22.35;82.33;101147.09;8340476;28;20045;-62
2023/10/01 19:01:40;;;;;;;13.88;6.07;;;;;;;22.18;83.57;101126.41;8349151;28;20522;-60
2023/10/01 19:05:41;;;;;;;16.55;7.10;;;;;;;22.01;84.69;101145.13;8341243;28;20041;-62
2023/10/01 19:09:42;;;;;;;15.98;6.50;;;;;;;21.88;85.32;101139.53;8342139;28;20110;-62
2023/10/01 19:13:44;;;;;;;19.98;7.55;;;;;;;21.71;86.49;101149.06;8346517;28;20428;-62
2023/10/01 19:17:48;;;;;;;15.07;6.55;;;;;;;21.38;89.89;101154.22;8340277;28;20541;-63